Time;durP1;ratioP1;P1;durP2;ratioP2;P2;SDS_P1;SDS_P2;PMS_P1;PMS_P2;Temp;Humidity;BMP_temperature;BMP_pressure;BME280_temperature;BME280_humidity;BME280_pressure;Samples;Min_cycle;Max_cycle;Signal;HPM_P1;HPM_P2
2022/10/29 00:00:55;;;;;;;5.90;1.63;;;;;;;24.77;45.30;101074.88;4995898;28;20023;-55
2022/10/29 00:03:24;;;;;;;3.65;1.20;;;;;;;24.75;45.21;101075.72;4978114;28;20544;-56
2022/10/29 00:06:11;;;;;;;6.05;1.52;;;;;;;24.70;45.22;101071.31;4978297;28;20496;-55
2022/10/29 00:08:39;;;;;;;4.28;1.48;;;;;;;24.80;45.04;101066.19;4995635;28;20036;-54
2022/10/29 00:11:10;;;;;;;4.72;1.58;;;;;;;24.79;45.15;101065.28;4995745;28;20384;-58
2022/10/29 00:13:38;;;;;;;6.47;1.80;;;;;;;24.83;45.10;101064.47;4995738;28;20031;-58
2022/10/29 00:16:07;;;;;;;4.53;1.65;;;;;;;24.79;45.33;101060.03;4995602;28;20101;-50
2022/10/29 00:18:34;;;;;;;5.28;1.80;;;;;;;24.81;45.36;101060.94;4995193;28;20061;-56
2022/10/29 00:21:04;;;;;;;6.65;2.05;;;;;;;24.83;44.98;101066.19;4995205;28;20037;-54
2022/10/29 00:23:31;;;;;;;4.10;1.20;;;;;;;24.81;45.42;101053.06;4994710;28;20106;-57
2022/10/29 00:25:59;;;;;;;5.13;1.50;;;;;;;24.79;45.17;101064.41;4995027;28;20108;-58
2022/10/29 00:28:28;;;;;;;5.45;1.88;;;;;;;24.73;45.46;101052.97;4995042;28;20380;-57
2022/10/29 00:30:57;;;;;;;5.05;1.38;;;;;;;24.72;45.58;101052.97;4995233;28;20516;-57
2022/10/29 00:33:24;;;;;;;7.70;1.95;;;;;;;24.70;45.59;101050.31;4994699;28;20034;-57
2022/10/29 00:36:03;;;;;;;6.90;2.03;;;;;;;24.71;45.58;101052.09;4995211;28;20022;-57
2022/10/29 00:38:32;;;;;;;5.55;1.88;;;;;;;24.76;45.49;101044.25;4994817;28;20480;-59
2022/10/29 00:40:59;;;;;;;7.35;2.08;;;;;;;24.73;45.45;101060.84;4994781;28;20494;-57
2022/10/29 00:43:28;;;;;;;8.88;2.35;;;;;;;24.69;45.76;101035.41;4994396;28;20034;-58
2022/10/29 00:46:06;;;;;;;7.28;1.58;;;;;;;24.66;45.49;101045.00;4994756;28;20035;-56
2022/10/29 00:48:36;;;;;;;9.18;2.30;;;;;;;24.69;45.62;101040.66;4977699;28;20033;-58
2022/10/29 00:51:05;;;;;;;10.45;1.85;;;;;;;24.67;45.58;101025.78;4995785;28;20022;-58
2022/10/29 00:53:36;;;;;;;10.55;2.75;;;;;;;24.66;45.51;101027.50;4994887;28;20045;-58
2022/10/29 00:56:05;;;;;;;5.60;1.80;;;;;;;24.73;45.30;101013.63;4994567;28;20037;-58
2022/10/29 00:58:34;;;;;;;5.32;2.00;;;;;;;24.67;45.50;101016.13;4977426;28;20033;-58
2022/10/29 01:01:02;;;;;;;8.65;2.17;;;;;;;24.65;45.66;101006.50;4976964;28;20081;-57
2022/10/29 01:03:29;;;;;;;6.32;2.10;;;;;;;24.67;45.27;100983.81;4977306;28;20038;-57
2022/10/29 01:05:56;;;;;;;8.93;2.45;;;;;;;24.67;45.84;100991.66;4994517;28;20042;-58
2022/10/29 01:08:24;;;;;;;8.27;2.60;;;;;;;24.65;45.78;100991.66;4994605;28;20061;-50
2022/10/29 01:11:21;;;;;;;9.48;2.05;;;;;;;24.64;46.03;100994.25;4994207;28;20041;-57
2022/10/29 01:13:53;;;;;;;7.22;2.17;;;;;;;24.69;45.64;100987.31;4987860;28;20137;-54
2022/10/29 01:16:34;;;;;;;8.30;2.40;;;;;;;24.66;45.91;100988.16;4994300;28;20439;-56
2022/10/29 01:19:19;;;;;;;7.05;2.28;;;;;;;24.66;45.60;100980.28;4994273;28;20031;-56
2022/10/29 01:21:55;;;;;;;7.32;2.63;;;;;;;24.71;45.82;100977.75;4994329;28;20370;-44
2022/10/29 01:25:00;;;;;;;7.55;2.55;;;;;;;24.73;45.45;100963.78;4993724;28;20117;-54
2022/10/29 01:27:55;;;;;;;8.57;2.40;;;;;;;24.74;45.69;100985.63;4986610;28;20042;-57
2022/10/29 01:30:44;;;;;;;9.10;2.33;;;;;;;24.73;45.46;100987.41;4994250;28;20113;-55
2022/10/29 01:33:22;;;;;;;7.45;2.28;;;;;;;24.80;45.26;100990.09;4976725;28;20026;-52
2022/10/29 01:36:12;;;;;;;8.30;2.30;;;;;;;24.77;45.58;100988.28;4976728;28;20030;-57
2022/10/29 01:39:01;;;;;;;8.32;2.25;;;;;;;24.77;45.48;100985.69;4988715;28;20510;-52
2022/10/29 01:41:44;;;;;;;7.90;2.72;;;;;;;24.81;45.38;100986.59;4988146;28;20074;-51
2022/10/29 01:44:22;;;;;;;8.57;2.22;;;;;;;24.78;45.45;100983.94;4976707;28;20030;-56
2022/10/29 01:46:54;;;;;;;6.30;2.17;;;;;;;24.74;45.56;100972.53;4993807;28;20069;-58
2022/10/29 01:49:27;;;;;;;9.25;2.97;;;;;;;24.76;45.61;100976.03;4976452;28;20044;-58
2022/10/29 01:51:55;;;;;;;9.35;2.78;;;;;;;24.75;45.63;100971.66;4993770;28;20360;-51
2022/10/29 01:54:22;;;;;;;6.53;2.15;;;;;;;24.75;45.61;100976.03;4994064;28;20029;-56
2022/10/29 01:57:00;;;;;;;8.73;2.30;;;;;;;24.75;45.63;100991.78;4976574;28;20034;-57
2022/10/29 01:59:30;;;;;;;14.05;3.13;;;;;;;24.79;45.67;100981.31;4976375;28;20456;-54
2022/10/29 02:02:08;;;;;;;10.05;2.28;;;;;;;24.85;45.11;100983.13;4993579;28;20058;-51
2022/10/29 02:04:59;;;;;;;11.73;2.80;;;;;;;24.80;45.57;100984.84;4976353;28;20077;-57
2022/10/29 02:07:46;;;;;;;7.22;2.53;;;;;;;24.80;45.63;100985.72;4966002;28;20050;-58
2022/10/29 02:10:39;;;;;;;9.60;2.33;;;;;;;24.78;45.17;100971.69;4970905;28;20039;-54
2022/10/29 02:13:07;;;;;;;8.40;2.17;;;;;;;24.80;45.41;100969.09;4976366;28;20043;-58
2022/10/29 02:15:39;;;;;;;8.90;2.38;;;;;;;24.78;45.27;100983.94;4947550;28;20033;-55
2022/10/29 02:18:07;;;;;;;9.23;2.72;;;;;;;24.78;45.64;100976.06;4980656;28;20090;-57
2022/10/29 02:20:36;;;;;;;8.50;2.83;;;;;;;24.84;45.00;100974.38;4979491;28;20110;-56
2022/10/29 02:23:04;;;;;;;9.38;2.53;;;;;;;24.85;45.14;100972.63;4979170;28;20217;-57
2022/10/29 02:25:31;;;;;;;10.32;2.97;;;;;;;24.82;45.03;100970.88;4980408;28;20022;-56
2022/10/29 02:27:59;;;;;;;8.88;2.58;;;;;;;24.83;45.21;100963.84;4980488;28;20499;-53
2022/10/29 02:30:27;;;;;;;8.07;2.42;;;;;;;24.75;45.49;100965.53;4980555;28;20086;-57
2022/10/29 02:32:55;;;;;;;9.98;2.22;;;;;;;24.77;45.53;100971.69;4980345;28;20045;-57
2022/10/29 02:35:23;;;;;;;8.27;2.63;;;;;;;24.76;45.53;100973.41;4980386;28;20081;-56
2022/10/29 02:37:51;;;;;;;6.40;2.30;;;;;;;24.71;45.73;100962.03;4980317;28;20081;-57
2022/10/29 02:40:18;;;;;;;7.88;2.63;;;;;;;24.73;45.40;100960.31;4980216;28;20034;-57
2022/10/29 02:42:46;;;;;;;10.02;2.97;;;;;;;24.72;45.42;100951.53;4980032;28;20023;-57
2022/10/29 02:45:13;;;;;;;7.97;2.80;;;;;;;24.76;45.39;100957.69;4980527;28;20050;-58
2022/10/29 02:47:41;;;;;;;10.05;2.72;;;;;;;24.71;45.50;100949.78;4980251;28;20105;-58
2022/10/29 02:50:09;;;;;;;12.25;3.28;;;;;;;24.74;45.68;100954.16;4980582;28;20130;-57
2022/10/29 02:52:36;;;;;;;8.40;2.53;;;;;;;24.72;45.74;100969.91;4980228;28;20023;-57
2022/10/29 02:55:04;;;;;;;9.35;2.42;;;;;;;24.76;45.36;100969.94;4980358;28;20030;-58
2022/10/29 02:57:31;;;;;;;6.53;2.63;;;;;;;24.78;45.58;100979.56;4962943;28;20030;-58
2022/10/29 02:59:58;;;;;;;11.13;3.03;;;;;;;24.76;45.57;100943.69;4980850;28;20055;-58
2022/10/29 03:02:26;;;;;;;10.68;3.08;;;;;;;24.70;45.48;100940.13;4980513;28;20495;-58
2022/10/29 03:04:54;;;;;;;7.43;2.30;;;;;;;24.76;45.35;100952.44;4979898;28;20121;-56
2022/10/29 03:07:21;;;;;;;8.93;2.55;;;;;;;24.77;45.57;100929.72;4996570;28;20051;-55
2022/10/29 03:09:48;;;;;;;8.43;3.58;;;;;;;24.70;45.42;100942.75;4999434;28;20034;-54
2022/10/29 03:12:16;;;;;;;12.18;3.28;;;;;;;24.80;45.22;100945.50;4999905;28;20118;-57
2022/10/29 03:14:45;;;;;;;10.13;2.67;;;;;;;24.82;45.52;100954.25;4999634;28;20102;-57
2022/10/29 03:17:12;;;;;;;8.43;2.33;;;;;;;24.66;45.38;100929.56;4999352;28;20081;-57
2022/10/29 03:19:39;;;;;;;10.73;3.08;;;;;;;24.80;45.22;100948.97;4999509;28;20040;-52
2022/10/29 03:22:08;;;;;;;7.05;2.42;;;;;;;24.77;45.17;100934.97;4999562;28;20045;-54
2022/10/29 03:24:36;;;;;;;10.02;2.88;;;;;;;24.76;45.44;100927.94;4996512;28;20027;-56
2022/10/29 03:27:03;;;;;;;7.70;2.13;;;;;;;24.77;45.14;100914.84;4996210;28;20506;-56
2022/10/29 03:29:31;;;;;;;11.13;2.47;;;;;;;24.63;45.39;100891.09;4996210;28;20031;-57
2022/10/29 03:31:59;;;;;;;8.68;2.83;;;;;;;24.76;45.62;100904.34;4996363;28;20030;-56
2022/10/29 03:34:27;;;;;;;9.52;2.90;;;;;;;24.73;45.82;100908.69;4996400;28;20033;-56
2022/10/29 03:36:55;;;;;;;10.02;2.42;;;;;;;24.77;45.19;100908.72;4996299;28;20118;-57
2022/10/29 03:39:22;;;;;;;9.35;2.83;;;;;;;24.75;45.57;100910.44;4996242;28;20026;-54
2022/10/29 03:41:50;;;;;;;9.35;3.00;;;;;;;24.76;45.46;100910.47;4996292;28;20057;-57
2022/10/29 03:44:17;;;;;;;9.65;2.35;;;;;;;24.75;45.19;100897.34;4995678;28;20034;-56
2022/10/29 03:46:45;;;;;;;7.82;2.92;;;;;;;24.73;45.35;100898.19;4996167;28;20030;-56
2022/10/29 03:49:12;;;;;;;7.20;2.00;;;;;;;24.72;45.58;100904.31;4996124;28;20408;-53
2022/10/29 03:51:39;;;;;;;8.10;2.40;;;;;;;24.71;45.27;100904.31;4997703;28;20026;-56
2022/10/29 03:54:08;;;;;;;8.43;2.50;;;;;;;24.72;45.18;100893.81;5015560;28;20033;-58
2022/10/29 03:56:36;;;;;;;8.88;2.50;;;;;;;24.69;45.31;100888.50;5015212;28;20034;-57
2022/10/29 03:59:03;;;;;;;8.57;2.08;;;;;;;24.67;45.65;100874.50;5015623;28;20429;-57
2022/10/29 04:01:31;;;;;;;6.65;1.92;;;;;;;24.66;45.35;100883.22;5015688;28;20087;-54
2022/10/29 04:03:58;;;;;;;9.90;2.63;;;;;;;24.71;45.56;100889.44;5015166;28;20038;-52
2022/10/29 04:06:25;;;;;;;8.38;2.53;;;;;;;24.69;45.46;100861.41;4981118;28;20046;-52
2022/10/29 04:08:54;;;;;;;7.68;2.30;;;;;;;24.64;45.59;100856.13;5015086;28;20030;-57
2022/10/29 04:11:21;;;;;;;8.30;2.10;;;;;;;24.69;45.55;100874.53;5014868;28;20026;-58
2022/10/29 04:13:52;;;;;;;7.20;2.20;;;;;;;24.65;45.40;100878.88;5015115;28;20475;-58
2022/10/29 04:16:19;;;;;;;6.55;2.33;;;;;;;24.67;45.47;100876.25;5015017;28;20026;-56
2022/10/29 04:18:48;;;;;;;9.40;2.35;;;;;;;24.67;45.65;100878.88;5014879;28;20022;-57
2022/10/29 04:21:16;;;;;;;6.38;2.42;;;;;;;24.70;45.68;100878.94;4997519;28;20054;-57
2022/10/29 04:23:44;;;;;;;6.22;2.22;;;;;;;24.70;45.52;100892.91;5014932;28;20036;-54
2022/10/29 04:26:11;;;;;;;6.05;2.10;;;;;;;24.68;45.52;100884.13;5014820;28;20462;-54
2022/10/29 04:28:39;;;;;;;8.32;2.15;;;;;;;24.70;45.38;100886.81;5014880;28;20101;-56
2022/10/29 04:31:10;;;;;;;3.90;1.90;;;;;;;24.68;45.60;100876.25;5014569;28;20501;-58
2022/10/29 04:33:38;;;;;;;5.15;1.83;;;;;;;24.69;45.69;100870.16;4997536;28;20092;-58
2022/10/29 04:36:07;;;;;;;5.57;2.05;;;;;;;24.70;45.60;100873.69;5014341;28;20121;-57
2022/10/29 04:38:35;;;;;;;6.90;1.90;;;;;;;24.69;45.44;100866.66;5014632;28;20053;-58
2022/10/29 04:41:03;;;;;;;5.78;2.03;;;;;;;24.70;45.59;100866.69;5014463;28;20056;-58
2022/10/29 04:43:32;;;;;;;9.50;2.10;;;;;;;24.69;45.28;100871.91;5014275;28;20029;-57
2022/10/29 04:46:00;;;;;;;6.38;2.15;;;;;;;24.64;45.59;100865.72;5014559;28;20026;-57
2022/10/29 04:48:28;;;;;;;8.98;2.22;;;;;;;24.64;45.67;100861.38;5014676;28;20391;-58
2022/10/29 04:50:55;;;;;;;6.53;1.92;;;;;;;24.70;45.57;100863.19;5014408;28;20033;-54
2022/10/29 04:53:23;;;;;;;6.43;2.05;;;;;;;24.69;45.47;100858.78;5014344;28;20026;-58
2022/10/29 04:55:51;;;;;;;7.72;2.15;;;;;;;24.68;45.38;100863.13;5014494;28;20018;-58
2022/10/29 04:58:20;;;;;;;4.72;1.83;;;;;;;24.69;45.64;100864.91;5014624;28;20096;-57
2022/10/29 05:00:48;;;;;;;6.30;2.25;;;;;;;24.65;45.32;100876.25;5014299;28;20100;-58
2022/10/29 05:03:15;;;;;;;4.32;1.70;;;;;;;24.69;45.38;100883.25;5014017;28;20018;-57
2022/10/29 05:05:43;;;;;;;8.95;2.63;;;;;;;24.68;45.63;100867.53;5014033;28;20050;-56
2022/10/29 05:08:12;;;;;;;5.78;2.45;;;;;;;24.68;45.60;100865.75;5014212;28;20034;-57
2022/10/29 05:10:40;;;;;;;5.43;1.55;;;;;;;24.66;45.63;100872.72;5013913;28;20030;-51
2022/10/29 05:13:11;;;;;;;9.32;2.60;;;;;;;24.68;45.36;100886.75;5014007;28;20483;-55
2022/10/29 05:15:40;;;;;;;5.50;1.70;;;;;;;24.66;45.59;100867.50;5014350;28;20033;-56
2022/10/29 05:18:09;;;;;;;7.18;2.08;;;;;;;24.66;45.58;100867.50;5014009;28;20080;-56
2022/10/29 05:20:38;;;;;;;6.60;1.92;;;;;;;24.67;45.39;100866.63;4996550;28;20092;-56
2022/10/29 05:23:07;;;;;;;5.90;1.85;;;;;;;24.65;45.44;100852.66;5013430;28;20034;-57
2022/10/29 05:25:37;;;;;;;3.92;1.58;;;;;;;24.63;45.49;100843.00;5013825;28;20026;-56
2022/10/29 05:28:06;;;;;;;5.50;2.08;;;;;;;24.63;45.41;100845.59;5013598;28;20018;-57
2022/10/29 05:30:34;;;;;;;6.63;2.50;;;;;;;24.67;45.58;100843.03;5013856;28;20483;-57
2022/10/29 05:33:05;;;;;;;8.25;2.13;;;;;;;24.65;45.55;100844.78;5013438;28;20026;-56
2022/10/29 05:35:34;;;;;;;3.88;1.65;;;;;;;24.64;45.49;100848.28;5013719;28;20025;-57
2022/10/29 05:38:02;;;;;;;3.92;1.75;;;;;;;24.47;45.50;100819.25;5013633;28;20386;-55
2022/10/29 05:40:30;;;;;;;6.25;2.00;;;;;;;24.63;45.66;100846.50;5013581;28;20379;-56
2022/10/29 05:42:57;;;;;;;8.00;2.15;;;;;;;24.64;45.41;100843.03;5013311;28;20022;-57
2022/10/29 05:45:25;;;;;;;5.28;1.70;;;;;;;24.64;45.49;100845.66;4995851;28;20367;-58
2022/10/29 05:48:03;;;;;;;6.75;2.30;;;;;;;24.61;45.50;100853.47;5012715;28;20407;-57
2022/10/29 05:50:33;;;;;;;5.65;1.65;;;;;;;24.63;45.76;100850.84;5013344;28;20029;-56
2022/10/29 05:53:04;;;;;;;7.82;2.13;;;;;;;24.61;45.71;100852.59;4995858;28;20026;-56
2022/10/29 05:55:34;;;;;;;5.13;1.75;;;;;;;24.63;45.55;100846.50;5013492;28;20394;-57
2022/10/29 05:58:05;;;;;;;5.68;1.55;;;;;;;24.56;45.71;100835.09;5013556;28;20076;-56
2022/10/29 06:00:35;;;;;;;6.03;2.17;;;;;;;24.62;45.84;100830.75;4995859;28;20030;-56
2022/10/29 06:03:03;;;;;;;4.78;1.70;;;;;;;24.65;45.76;100825.53;5013352;28;20029;-56
2022/10/29 06:05:31;;;;;;;4.65;2.17;;;;;;;24.58;45.49;100811.47;5013019;28;20116;-56
2022/10/29 06:08:00;;;;;;;3.35;1.52;;;;;;;24.63;45.77;100815.03;5013349;28;20034;-56
2022/10/29 06:10:29;;;;;;;8.82;1.55;;;;;;;24.62;45.71;100815.00;5013152;28;20026;-53
2022/10/29 06:12:58;;;;;;;5.32;1.60;;;;;;;24.59;45.52;100815.88;5013180;28;20147;-54
2022/10/29 06:15:25;;;;;;;7.63;2.28;;;;;;;24.59;45.57;100826.34;5013368;28;20030;-49
2022/10/29 06:17:53;;;;;;;7.90;1.90;;;;;;;24.60;45.48;100832.47;5013236;28;20053;-58
2022/10/29 06:20:21;;;;;;;8.48;1.83;;;;;;;24.61;45.42;100827.25;5012864;28;20022;-52
2022/10/29 06:22:56;;;;;;;7.20;1.67;;;;;;;24.55;45.69;100814.97;5011065;28;20061;-58
2022/10/29 06:25:25;;;;;;;6.40;1.83;;;;;;;24.62;45.61;100817.63;5013163;28;20034;-58
2022/10/29 06:28:14;;;;;;;6.47;1.77;;;;;;;24.58;45.85;100821.97;5013160;28;20478;-57
2022/10/29 06:30:45;;;;;;;6.00;2.03;;;;;;;24.66;45.49;100824.66;5012736;28;20108;-57
2022/10/29 06:33:12;;;;;;;4.43;1.85;;;;;;;24.65;45.62;100813.31;5013244;28;20463;-58
2022/10/29 06:35:40;;;;;;;8.35;2.60;;;;;;;24.63;45.73;100819.38;5012983;28;20037;-58
2022/10/29 06:38:07;;;;;;;11.07;2.92;;;;;;;24.66;45.69;100808.91;5012964;28;20054;-57
2022/10/29 06:40:35;;;;;;;6.95;1.88;;;;;;;24.70;45.22;100816.00;5012808;28;20364;-58
2022/10/29 06:43:06;;;;;;;9.95;2.08;;;;;;;24.67;45.64;100822.03;4995095;28;20371;-58
2022/10/29 06:45:34;;;;;;;6.68;2.45;;;;;;;24.68;45.49;100826.41;5012904;28;20137;-57
2022/10/29 06:48:04;;;;;;;4.30;1.52;;;;;;;24.65;45.80;100829.03;5012275;28;20490;-58
2022/10/29 06:50:33;;;;;;;8.93;2.53;;;;;;;24.66;45.56;100825.53;5012857;28;20565;-58
2022/10/29 06:53:02;;;;;;;5.22;2.00;;;;;;;24.68;45.54;100826.41;5000074;28;20034;-58
2022/10/29 06:55:30;;;;;;;6.05;2.00;;;;;;;24.70;45.78;100808.13;4992897;28;20060;-57
2022/10/29 06:58:04;;;;;;;7.13;2.50;;;;;;;24.68;45.65;100820.31;4994007;28;20041;-58
2022/10/29 07:00:32;;;;;;;10.00;2.53;;;;;;;24.57;45.88;100813.22;4997002;28;20022;-58
2022/10/29 07:03:00;;;;;;;8.43;2.30;;;;;;;24.66;45.83;100819.41;4996755;28;20471;-57
2022/10/29 07:05:27;;;;;;;9.88;2.78;;;;;;;24.69;45.55;100814.19;4996976;28;20024;-51
2022/10/29 07:07:56;;;;;;;9.10;1.92;;;;;;;24.66;45.69;100793.19;4963238;28;20030;-54
2022/10/29 07:10:24;;;;;;;10.10;2.60;;;;;;;24.64;45.92;100814.16;4979378;28;20053;-57
2022/10/29 07:12:51;;;;;;;10.13;2.00;;;;;;;24.73;45.48;100829.13;4996617;28;20027;-54
2022/10/29 07:15:18;;;;;;;5.55;1.75;;;;;;;24.72;45.35;100838.72;4979333;28;20418;-50
2022/10/29 07:17:56;;;;;;;6.15;2.38;;;;;;;24.67;45.70;100843.03;4996529;28;20026;-50
2022/10/29 07:20:25;;;;;;;11.68;3.35;;;;;;;24.70;45.73;100836.97;4996490;28;20027;-56
2022/10/29 07:22:54;;;;;;;11.32;3.05;;;;;;;24.73;46.01;100827.38;4996155;28;20037;-56
2022/10/29 07:25:22;;;;;;;10.85;2.60;;;;;;;24.78;45.97;100829.16;4996104;28;20105;-57
2022/10/29 07:27:51;;;;;;;11.30;2.97;;;;;;;24.73;45.72;100834.38;4996333;28;20022;-56
2022/10/29 07:30:19;;;;;;;10.82;2.90;;;;;;;24.75;45.95;100824.75;4996299;28;20123;-57
2022/10/29 07:32:48;;;;;;;10.52;2.95;;;;;;;24.73;45.95;100827.38;4996181;28;20030;-57
2022/10/29 07:35:16;;;;;;;11.80;3.28;;;;;;;24.75;45.71;100819.50;4995751;28;20619;-55
2022/10/29 07:37:45;;;;;;;9.60;3.25;;;;;;;24.75;45.77;100837.88;5014692;28;20378;-57
2022/10/29 07:40:14;;;;;;;6.70;2.63;;;;;;;24.72;45.98;100840.50;5015719;28;20033;-57
2022/10/29 07:42:42;;;;;;;13.07;2.83;;;;;;;24.73;46.11;100852.75;5014973;28;20030;-58
2022/10/29 07:45:11;;;;;;;11.70;2.65;;;;;;;24.74;46.13;100854.47;5015778;28;20069;-57
2022/10/29 07:47:41;;;;;;;12.95;3.00;;;;;;;24.73;45.87;100856.22;5015258;28;20058;-57
2022/10/29 07:50:10;;;;;;;10.40;2.83;;;;;;;24.75;45.87;100852.75;5015720;28;20479;-58
2022/10/29 07:52:39;;;;;;;7.90;2.97;;;;;;;24.71;45.91;100842.22;5015593;28;20529;-57
2022/10/29 07:55:08;;;;;;;10.65;3.00;;;;;;;24.72;45.89;100843.97;5015380;28;20028;-57
2022/10/29 07:57:37;;;;;;;15.77;3.25;;;;;;;24.89;45.80;100845.84;5015500;28;20463;-57
2022/10/29 08:00:06;;;;;;;11.40;2.92;;;;;;;24.84;46.01;100837.06;5015509;28;20026;-57
2022/10/29 08:02:34;;;;;;;9.68;3.13;;;;;;;24.82;46.12;100847.56;5015303;28;20379;-57
2022/10/29 08:05:03;;;;;;;16.35;5.00;;;;;;;24.76;46.46;100846.63;5015329;28;20057;-57
2022/10/29 08:07:30;;;;;;;18.33;4.90;;;;;;;24.83;45.91;100861.53;5015099;28;20529;-57
2022/10/29 08:09:59;;;;;;;12.27;4.10;;;;;;;24.82;45.95;100865.06;5014450;28;20069;-56
2022/10/29 08:12:27;;;;;;;23.80;4.63;;;;;;;24.83;46.27;100874.66;5015154;28;20030;-57
2022/10/29 08:14:56;;;;;;;14.63;3.95;;;;;;;24.73;45.93;100877.22;5015159;28;20034;-58
2022/10/29 08:17:24;;;;;;;11.25;3.47;;;;;;;24.78;46.08;100885.13;5014972;28;20068;-57
2022/10/29 08:19:53;;;;;;;10.10;3.45;;;;;;;24.79;46.21;100888.63;4997487;28;20030;-58
2022/10/29 08:22:22;;;;;;;11.65;4.25;;;;;;;24.76;46.31;100894.72;5014747;28;20363;-57
2022/10/29 08:24:50;;;;;;;11.45;3.80;;;;;;;24.77;46.17;100900.84;5014767;28;20121;-56
2022/10/29 08:27:18;;;;;;;18.98;4.10;;;;;;;24.78;46.08;100906.09;5014516;28;20033;-58
2022/10/29 08:29:47;;;;;;;10.82;3.53;;;;;;;24.78;46.03;100918.34;5015010;28;20040;-58
2022/10/29 08:32:15;;;;;;;7.15;3.05;;;;;;;24.77;46.09;100924.47;5014755;28;20440;-58
2022/10/29 08:34:43;;;;;;;14.32;3.83;;;;;;;24.86;45.89;100921.91;4997190;28;20045;-55
2022/10/29 08:37:11;;;;;;;16.95;4.28;;;;;;;24.83;46.06;100914.91;5014804;28;20093;-57
2022/10/29 08:39:40;;;;;;;10.90;3.70;;;;;;;24.83;46.23;100930.66;5014912;28;20025;-57
2022/10/29 08:42:28;;;;;;;11.10;3.67;;;;;;;24.77;46.17;100927.09;5014647;28;20022;-58
2022/10/29 08:45:04;;;;;;;11.95;4.10;;;;;;;24.82;46.07;100942.00;5004635;28;20041;-58
2022/10/29 08:47:58;;;;;;;13.60;3.53;;;;;;;24.86;46.11;100961.28;5014199;28;20056;-58
2022/10/29 08:50:33;;;;;;;12.02;3.35;;;;;;;24.83;46.12;100953.38;5007856;28;20487;-58
2022/10/29 08:53:02;;;;;;;11.50;3.03;;;;;;;24.85;46.01;100962.13;5014533;28;20497;-58
2022/10/29 08:55:36;;;;;;;10.38;3.25;;;;;;;24.82;46.44;100972.63;5014281;28;20032;-57
2022/10/29 08:58:18;;;;;;;8.93;3.35;;;;;;;24.83;46.33;100971.72;5014449;28;20033;-57
2022/10/29 09:00:47;;;;;;;10.63;3.80;;;;;;;24.86;46.43;100977.91;4996802;28;20034;-58
2022/10/29 09:03:16;;;;;;;11.63;3.45;;;;;;;24.82;46.28;100983.13;5014151;28;20028;-57
2022/10/29 09:06:04;;;;;;;12.40;3.90;;;;;;;24.87;46.36;100998.03;5014323;28;20050;-52
2022/10/29 09:08:51;;;;;;;9.32;3.53;;;;;;;24.85;46.41;101005.00;5004845;28;20478;-57
2022/10/29 09:11:40;;;;;;;11.98;3.45;;;;;;;24.81;46.49;100997.97;5013912;28;20417;-56
2022/10/29 09:14:30;;;;;;;12.90;3.72;;;;;;;24.91;46.33;101001.56;4996410;28;20609;-57
2022/10/29 09:17:17;;;;;;;11.40;3.47;;;;;;;24.88;46.63;100977.91;5002905;28;20104;-52
2022/10/29 09:20:23;;;;;;;11.93;3.88;;;;;;;24.86;46.56;100975.28;4988584;28;20048;-56
2022/10/29 09:23:04;;;;;;;;;;;;;;;24.93;46.39;100975.31;5004912;28;20064;-56
2022/10/29 09:25:47;;;;;;;13.50;3.30;;;;;;;24.95;46.21;100971.88;4996082;28;19913;-58
2022/10/29 09:28:39;;;;;;;15.75;3.83;;;;;;;24.97;46.33;100966.63;4995799;28;20030;-57
2022/10/29 09:31:12;;;;;;;8.27;3.60;;;;;;;24.95;46.49;100966.63;4991484;28;20053;-56
2022/10/29 09:33:41;;;;;;;10.55;3.60;;;;;;;24.88;46.56;100973.56;4996880;28;20398;-56
2022/10/29 09:36:15;;;;;;;13.48;3.72;;;;;;;24.83;46.50;100966.47;5013911;28;20085;-55
2022/10/29 09:39:04;;;;;;;14.68;3.47;;;;;;;24.85;46.33;100968.28;4995986;28;20065;-56
2022/10/29 09:41:34;;;;;;;9.93;3.20;;;;;;;24.90;46.41;100968.31;5013598;28;20095;-56
2022/10/29 09:44:23;;;;;;;10.73;3.38;;;;;;;24.79;46.60;100973.44;5013613;28;20029;-55
2022/10/29 09:46:58;;;;;;;8.88;3.10;;;;;;;24.84;46.62;100966.50;4973306;28;20399;-58
2022/10/29 09:49:36;;;;;;;13.80;3.85;;;;;;;24.85;46.84;100970.00;5012995;28;20057;-57
2022/10/29 09:52:14;;;;;;;8.35;3.50;;;;;;;24.84;46.68;100963.88;4998192;28;20046;-57
2022/10/29 09:54:42;;;;;;;11.20;3.72;;;;;;;24.83;46.59;100953.38;4976862;28;20045;-57
2022/10/29 09:57:28;;;;;;;9.90;3.63;;;;;;;24.83;46.87;100967.38;4993584;28;20415;-58
2022/10/29 10:00:03;;;;;;;9.35;2.90;;;;;;;24.86;46.77;100970.03;4993620;28;20026;-57
2022/10/29 10:02:31;;;;;;;11.10;3.05;;;;;;;24.87;46.67;100958.69;4993206;28;20029;-57
2022/10/29 10:05:05;;;;;;;18.13;3.88;;;;;;;24.87;46.75;100963.03;4993204;28;20049;-56
2022/10/29 10:07:34;;;;;;;7.38;2.70;;;;;;;24.88;47.08;100946.41;4993446;28;20050;-57
2022/10/29 10:10:03;;;;;;;12.02;3.15;;;;;;;24.87;46.77;100947.28;4993299;28;20038;-57
2022/10/29 10:12:50;;;;;;;6.72;2.88;;;;;;;24.85;47.13;100962.13;4993401;28;20022;-56
2022/10/29 10:15:20;;;;;;;8.38;2.63;;;;;;;24.90;46.93;100952.56;4993027;28;20034;-55
2022/10/29 10:18:00;;;;;;;6.65;2.30;;;;;;;24.96;46.71;100972.72;4993652;28;20034;-58
2022/10/29 10:20:31;;;;;;;11.38;2.88;;;;;;;25.03;46.63;100970.16;4993138;28;20448;-56
2022/10/29 10:22:59;;;;;;;8.05;3.30;;;;;;;25.00;46.68;100982.41;4993020;28;20018;-57
2022/10/29 10:25:39;;;;;;;7.90;3.38;;;;;;;24.97;46.56;101004.25;4992962;28;20498;-57
2022/10/29 10:28:28;;;;;;;7.13;3.20;;;;;;;24.97;46.74;101008.59;4993591;28;20026;-57
2022/10/29 10:31:15;;;;;;;9.57;3.65;;;;;;;25.00;46.54;100967.50;4984794;28;20043;-57
2022/10/29 10:33:50;;;;;;;7.70;3.13;;;;;;;25.04;46.51;100978.94;4995231;28;20034;-57
2022/10/29 10:36:17;;;;;;;;;;;;;;;25.06;46.49;100998.22;4997672;28;20061;-58
2022/10/29 10:38:49;;;;;;;7.10;2.90;;;;;;;25.13;46.79;101002.63;4979674;28;19949;-58
2022/10/29 10:41:25;;;;;;;8.63;2.72;;;;;;;25.11;46.68;101000.88;4979982;28;20033;-58
2022/10/29 10:43:59;;;;;;;8.73;2.90;;;;;;;25.14;46.70;101006.16;4996970;28;20038;-58
2022/10/29 10:46:32;;;;;;;10.15;2.45;;;;;;;25.15;46.54;100981.66;4996414;28;20026;-58
2022/10/29 10:49:20;;;;;;;9.55;3.45;;;;;;;25.14;46.66;100986.03;4979486;28;20431;-57
2022/10/29 10:51:50;;;;;;;10.90;3.22;;;;;;;25.13;46.62;100984.25;4981925;28;20038;-57
2022/10/29 10:54:32;;;;;;;9.10;2.60;;;;;;;25.12;46.76;100979.88;5016318;28;20026;-58
2022/10/29 10:57:18;;;;;;;12.10;3.25;;;;;;;25.14;46.50;101003.53;5016258;28;20045;-58
2022/10/29 11:00:03;;;;;;;8.38;2.70;;;;;;;25.14;46.59;100974.66;4998894;28;20107;-58
2022/10/29 11:02:34;;;;;;;10.23;2.33;;;;;;;25.25;46.25;100978.22;4998999;28;20037;-58
2022/10/29 11:05:12;;;;;;;11.32;2.92;;;;;;;25.15;46.43;100965.91;5016256;28;20034;-58
2022/10/29 11:07:43;;;;;;;10.20;2.72;;;;;;;25.20;46.69;100964.19;4998851;28;20065;-57
2022/10/29 11:10:13;;;;;;;7.70;2.78;;;;;;;25.25;46.20;100966.84;5016297;28;20034;-57
2022/10/29 11:12:53;;;;;;;5.60;2.75;;;;;;;25.29;46.40;100963.38;5014971;28;20056;-57
2022/10/29 11:15:50;;;;;;;6.53;2.38;;;;;;;25.32;46.27;100966.91;5016055;28;20451;-56
2022/10/29 11:18:24;;;;;;;5.10;2.28;;;;;;;25.31;46.14;100970.41;5015836;28;20025;-57
2022/10/29 11:21:06;;;;;;;5.10;2.28;;;;;;;25.24;46.40;100967.69;4998451;28;20026;-55
2022/10/29 11:23:41;;;;;;;8.48;2.72;;;;;;;25.30;46.28;101010.66;4998313;28;20030;-56
2022/10/29 11:26:14;;;;;;;6.82;2.58;;;;;;;25.27;46.13;101039.53;5016163;28;20026;-57
2022/10/29 11:29:07;;;;;;;7.07;2.70;;;;;;;25.23;46.57;101052.63;4998450;28;20030;-56
2022/10/29 11:31:43;;;;;;;7.75;2.45;;;;;;;25.23;46.35;101050.84;4975091;28;20038;-57
2022/10/29 11:34:19;;;;;;;8.50;2.60;;;;;;;25.23;46.36;101048.22;4978020;28;20045;-54
2022/10/29 11:36:56;;;;;;;12.77;3.10;;;;;;;25.24;46.30;101034.22;4977707;28;20034;-57
2022/10/29 11:39:31;;;;;;;11.73;2.80;;;;;;;25.18;46.16;101024.56;4959989;28;20110;-57
2022/10/29 11:42:00;;;;;;;9.27;2.45;;;;;;;25.17;46.34;101017.56;4983293;28;20038;-54
2022/10/29 11:44:28;;;;;;;10.52;3.60;;;;;;;25.18;46.34;101016.69;4993596;28;20081;-56
2022/10/29 11:47:17;;;;;;;11.10;3.10;;;;;;;25.16;46.42;101015.78;4994191;28;20122;-57